Time;durP1;ratioP1;P1;durP2;ratioP2;P2;SDS_P1;SDS_P2;PMS_P1;PMS_P2;Temp;Humidity;BMP_temperature;BMP_pressure;BME280_temperature;BME280_humidity;BME280_pressure;Samples;Min_cycle;Max_cycle;Signal;HPM_P1;HPM_P2
2023/02/15 00:01:30;;;;;;;61.47;32.67;;;1.30;99.90;;;;;;5055436;28;20029;-68
2023/02/15 00:03:55;;;;;;;66.72;35.25;;;1.40;99.90;;;;;;5055713;28;20017;-68
2023/02/15 00:06:21;;;;;;;57.78;31.38;;;1.50;99.90;;;;;;5055533;28;20461;-68
2023/02/15 00:08:47;;;;;;;60.75;32.47;;;1.40;99.90;;;;;;5055512;28;20386;-67
2023/02/15 00:11:16;;;;;;;59.15;31.63;;;1.30;99.90;;;;;;5055553;28;20029;-68
2023/02/15 00:13:42;;;;;;;52.17;30.08;;;1.30;99.90;;;;;;5054029;28;20131;-68
2023/02/15 00:16:11;;;;;;;57.72;31.48;;;1.20;99.90;;;;;;5055039;28;20082;-68
2023/02/15 00:18:38;;;;;;;56.42;30.58;;;1.20;99.90;;;;;;5055164;28;20078;-68
2023/02/15 00:21:08;;;;;;;59.03;32.13;;;1.20;99.90;;;;;;5054978;28;20056;-67
2023/02/15 00:23:34;;;;;;;53.80;30.83;;;1.10;99.90;;;;;;5055323;28;20075;-68
2023/02/15 00:26:05;;;;;;;60.30;34.80;;;1.00;99.90;;;;;;5054099;28;20391;-68
2023/02/15 00:28:31;;;;;;;59.17;32.88;;;1.00;99.90;;;;;;5055072;28;20099;-67
2023/02/15 00:31:04;;;;;;;56.92;31.33;;;1.00;99.90;;;;;;5055054;28;20021;-68
2023/02/15 00:33:29;;;;;;;;;;;0.90;99.90;;;;;;5055589;28;20040;-68
2023/02/15 00:35:57;;;;;;;55.30;29.77;;;0.90;99.90;;;;;;5055065;28;19904;-67
2023/02/15 00:38:23;;;;;;;55.03;30.95;;;0.90;99.90;;;;;;5055073;28;20040;-67
2023/02/15 00:40:54;;;;;;;68.03;32.50;;;0.90;99.90;;;;;;5054641;28;20025;-67
2023/02/15 00:43:19;;;;;;;72.68;32.92;;;0.90;99.90;;;;;;5054802;28;20368;-68
2023/02/15 00:45:45;;;;;;;61.42;32.78;;;0.90;99.90;;;;;;5054645;28;20028;-68
2023/02/15 00:48:11;;;;;;;54.78;30.27;;;0.90;99.90;;;;;;5054602;28;20052;-67
2023/02/15 00:50:36;;;;;;;58.58;32.75;;;0.80;99.90;;;;;;5054564;28;20033;-68
2023/02/15 00:53:02;;;;;;;59.50;33.75;;;0.80;99.90;;;;;;5054570;28;20395;-68
2023/02/15 00:55:28;;;;;;;60.58;32.38;;;0.80;99.90;;;;;;5054613;28;20029;-68
2023/02/15 00:57:53;;;;;;;60.50;32.88;;;0.80;99.90;;;;;;5054737;28;20112;-67
2023/02/15 01:00:19;;;;;;;52.15;31.17;;;0.70;99.90;;;;;;5054252;28;20442;-68
2023/02/15 01:02:44;;;;;;;60.40;31.70;;;0.70;99.90;;;;;;5053990;28;20021;-68
2023/02/15 01:05:10;;;;;;;62.05;32.53;;;0.60;99.90;;;;;;5053608;28;20029;-68
2023/02/15 01:07:35;;;;;;;59.63;31.40;;;0.60;99.90;;;;;;5054263;28;20032;-68
2023/02/15 01:10:01;;;;;;;62.15;31.67;;;0.60;99.90;;;;;;5054416;28;20025;-67
2023/02/15 01:12:26;;;;;;;59.22;31.20;;;0.60;99.90;;;;;;5054395;28;20498;-68
2023/02/15 01:14:52;;;;;;;58.72;31.10;;;0.60;99.90;;;;;;5053928;28;20028;-68
2023/02/15 01:17:17;;;;;;;53.60;30.10;;;0.60;99.90;;;;;;5053936;28;20021;-68
2023/02/15 01:19:43;;;;;;;60.28;31.40;;;0.60;99.90;;;;;;5053656;28;20062;-67
2023/02/15 01:22:08;;;;;;;62.70;32.22;;;0.50;99.90;;;;;;5052629;28;20510;-67
2023/02/15 01:24:34;;;;;;;58.47;31.73;;;0.50;99.90;;;;;;5054016;28;20033;-67
2023/02/15 01:26:59;;;;;;;58.53;30.88;;;0.40;99.90;;;;;;5054120;28;20471;-68
2023/02/15 01:29:25;;;;;;;53.97;28.13;;;0.50;99.90;;;;;;5053939;28;20433;-68
2023/02/15 01:31:50;;;;;;;54.47;29.13;;;0.40;99.90;;;;;;5053989;28;20041;-68
2023/02/15 01:34:16;;;;;;;51.65;28.08;;;0.40;99.90;;;;;;5053962;28;20036;-68
2023/02/15 01:36:42;;;;;;;54.80;29.98;;;0.30;99.90;;;;;;5053943;28;20444;-67
2023/02/15 01:39:09;;;;;;;47.47;26.98;;;0.30;99.90;;;;;;5053848;28;20033;-68
2023/02/15 01:41:34;;;;;;;51.38;28.05;;;0.40;99.90;;;;;;5053548;28;20104;-68
2023/02/15 01:44:02;;;;;;;51.63;27.65;;;0.40;99.90;;;;;;5053674;28;20102;-68
2023/02/15 01:46:34;;;;;;;52.03;27.55;;;0.40;99.90;;;;;;5053646;28;20057;-68
2023/02/15 01:49:05;;;;;;;53.85;29.02;;;0.40;99.90;;;;;;5053532;28;20027;-68
2023/02/15 01:51:34;;;;;;;55.70;28.35;;;0.40;99.90;;;;;;5053526;28;20375;-67
2023/02/15 01:54:10;;;;;;;50.03;28.85;;;0.40;99.90;;;;;;5053483;28;20025;-67
2023/02/15 01:56:38;;;;;;;54.17;30.75;;;0.40;99.90;;;;;;5052330;28;20029;-68
2023/02/15 01:59:09;;;;;;;63.17;30.10;;;0.40;99.90;;;;;;5053322;28;20032;-68
2023/02/15 02:01:35;;;;;;;56.83;30.20;;;0.40;99.90;;;;;;5052115;28;20028;-67
2023/02/15 02:04:31;;;;;;;51.42;28.58;;;0.40;99.90;;;;;;5053513;28;20025;-68
2023/02/15 02:06:58;;;;;;;54.78;27.60;;;0.40;99.90;;;;;;5053305;28;20069;-67
2023/02/15 02:09:24;;;;;;;51.08;26.40;;;0.40;99.90;;;;;;5053339;28;20475;-68
2023/02/15 02:11:50;;;;;;;54.92;27.90;;;0.40;99.90;;;;;;5053368;28;20105;-68
2023/02/15 02:14:16;;;;;;;59.75;28.90;;;0.40;99.90;;;;;;5053359;28;20538;-67
2023/02/15 02:17:02;;;;;;;51.40;27.75;;;0.50;99.90;;;;;;5053125;28;20039;-67
2023/02/15 02:20:02;;;;;;;52.35;27.08;;;0.50;99.90;;;;;;5053337;28;20041;-67
2023/02/15 02:23:07;;;;;;;55.30;27.42;;;0.40;99.90;;;;;;5053258;28;20045;-68
2023/02/15 02:25:52;;;;;;;57.55;28.08;;;0.40;99.90;;;;;;5053139;28;20040;-68
2023/02/15 02:28:52;;;;;;;49.60;26.73;;;0.40;99.90;;;;;;5052807;28;20447;-68
2023/02/15 02:31:58;;;;;;;49.97;27.38;;;0.30;99.90;;;;;;5053111;28;20063;-68
2023/02/15 02:34:57;;;;;;;50.67;25.73;;;0.40;99.90;;;;;;5053037;28;20475;-68
2023/02/15 02:37:48;;;;;;;50.60;26.42;;;0.40;99.90;;;;;;5052882;28;20490;-67
2023/02/15 02:40:45;;;;;;;43.65;24.75;;;0.40;99.90;;;;;;5052756;28;20022;-68
2023/02/15 02:43:28;;;;;;;49.47;26.33;;;0.40;99.90;;;;;;5052987;28;20112;-68
2023/02/15 02:46:02;;;;;;;46.00;25.42;;;0.30;99.90;;;;;;5053160;28;20502;-68
2023/02/15 02:48:32;;;;;;;52.03;25.63;;;0.30;99.90;;;;;;5052929;28;20072;-68
2023/02/15 02:50:57;;;;;;;51.28;27.27;;;0.20;99.90;;;;;;5053087;28;20495;-68
2023/02/15 02:53:23;;;;;;;58.33;28.85;;;0.30;99.90;;;;;;5052856;28;20079;-68
2023/02/15 02:56:00;;;;;;;53.78;27.95;;;0.30;99.90;;;;;;5051740;28;20063;-68
2023/02/15 02:58:41;;;;;;;51.22;25.63;;;0.20;99.90;;;;;;5053058;28;20052;-68
2023/02/15 03:01:15;;;;;;;52.80;28.15;;;0.10;99.90;;;;;;5052736;28;20025;-68
2023/02/15 03:04:05;;;;;;;46.92;25.15;;;0.10;99.90;;;;;;5052924;28;20471;-68
2023/02/15 03:06:40;;;;;;;59.28;29.63;;;0.10;99.90;;;;;;5052690;28;20025;-68
2023/02/15 03:09:21;;;;;;;55.95;29.00;;;0.30;99.90;;;;;;5052684;28;20017;-68
2023/02/15 03:11:48;;;;;;;61.08;30.27;;;0.30;99.90;;;;;;5052868;28;20025;-68
2023/02/15 03:14:16;;;;;;;62.30;30.77;;;0.30;99.90;;;;;;5052373;28;20531;-69
2023/02/15 03:16:46;;;;;;;62.83;30.83;;;0.40;99.90;;;;;;5052777;28;20487;-68
2023/02/15 03:19:17;;;;;;;56.20;29.50;;;0.40;99.90;;;;;;5052594;28;20025;-68
2023/02/15 03:22:19;;;;;;;61.30;31.65;;;0.40;99.90;;;;;;5052260;28;20053;-67
2023/02/15 03:24:41;;;;;;;67.75;32.70;;;0.50;99.90;;;;;;5051274;28;20095;-68
2023/02/15 03:27:12;;;;;;;63.33;33.63;;;0.60;99.90;;;;;;5052602;28;20471;-69
2023/02/15 03:29:39;;;;;;;66.75;32.70;;;0.70;99.90;;;;;;5055942;28;20025;-68
2023/02/15 03:32:08;;;;;;;62.10;30.75;;;0.60;99.90;;;;;;5054973;28;20395;-68
2023/02/15 03:34:33;;;;;;;60.72;31.73;;;0.50;99.90;;;;;;5055090;28;20390;-68
2023/02/15 03:37:25;;;;;;;62.05;31.45;;;0.40;99.90;;;;;;5056010;28;20021;-69
2023/02/15 03:41:08;;;;;;;56.97;29.60;;;0.40;99.90;;;;;;5056023;28;20037;-68
2023/02/15 03:42:45;;;;;;;62.17;31.05;;;0.30;99.90;;;;;;5055678;28;20045;-68
2023/02/15 03:45:15;;;;;;;68.47;31.63;;;0.30;99.90;;;;;;5056070;28;20029;-67
2023/02/15 03:47:47;;;;;;;61.00;31.58;;;0.40;99.90;;;;;;5055724;28;20495;-68
2023/02/15 03:53:08;;;;;;;59.65;29.60;;;0.40;99.90;;;;;;5054510;28;20025;-68
2023/02/15 03:55:35;;;;;;;65.70;31.33;;;0.30;99.90;;;;;;5055671;28;20029;-68
2023/02/15 04:03:49;;;;;;;56.17;29.13;;;0.40;99.90;;;;;;5055278;28;20025;-68
2023/02/15 04:06:14;;;;;;;53.72;29.13;;;0.30;99.90;;;;;;5055431;28;20075;-68
2023/02/15 04:11:25;;;;;;;57.17;29.85;;;0.20;99.90;;;;;;5055194;28;20028;-69
2023/02/15 04:13:56;;;;;;;54.80;29.00;;;0.10;99.90;;;;;;5055263;28;20033;-68
2023/02/15 04:16:25;;;;;;;59.25;29.15;;;0.20;99.90;;;;;;5055233;28;20029;-68
2023/02/15 04:27:07;;;;;;;54.42;27.42;;;0.10;99.90;;;;;;5054862;28;20021;-68
2023/02/15 04:29:33;;;;;;;52.95;27.17;;;0.00;99.90;;;;;;5054969;28;20060;-68
2023/02/15 04:32:00;;;;;;;60.33;29.13;;;-0.10;99.90;;;;;;5054773;28;20082;-68
2023/02/15 04:34:26;;;;;;;57.83;27.98;;;-0.10;99.90;;;;;;5054931;28;20025;-68
2023/02/15 04:36:51;;;;;;;54.80;26.95;;;-0.20;99.90;;;;;;5054808;28;20025;-68
2023/02/15 04:39:18;;;;;;;50.10;27.23;;;-0.20;99.90;;;;;;5054805;28;20028;-68
2023/02/15 04:41:44;;;;;;;49.08;26.05;;;-0.20;99.90;;;;;;5054677;28;20033;-68
2023/02/15 04:44:09;;;;;;;58.38;29.00;;;-0.30;99.90;;;;;;5054747;28;20021;-68
2023/02/15 04:46:35;;;;;;;57.17;28.20;;;-0.30;99.90;;;;;;5054947;28;20033;-68
2023/02/15 04:49:00;;;;;;;62.97;30.33;;;-0.30;99.90;;;;;;5054902;28;20115;-68
2023/02/15 04:51:26;;;;;;;64.47;28.95;;;-0.20;99.90;;;;;;5054600;28;20063;-68
2023/02/15 04:53:53;;;;;;;58.03;28.10;;;-0.30;99.90;;;;;;5054706;28;20032;-68
2023/02/15 04:56:19;;;;;;;52.78;29.05;;;-0.30;99.90;;;;;;5054480;28;20052;-68
2023/02/15 04:58:45;;;;;;;62.95;28.73;;;-0.30;99.90;;;;;;5054216;28;20066;-68
2023/02/15 05:01:11;;;;;;;60.08;29.30;;;-0.30;99.90;;;;;;5053257;28;20474;-68
2023/02/15 05:03:37;;;;;;;54.33;27.15;;;-0.40;99.90;;;;;;5054623;28;20021;-67
2023/02/15 05:06:03;;;;;;;53.28;26.85;;;-0.40;99.90;;;;;;5054345;28;20032;-68
2023/02/15 05:08:29;;;;;;;56.80;28.67;;;-0.50;99.90;;;;;;5054549;28;20021;-68
2023/02/15 05:10:55;;;;;;;52.67;28.60;;;-0.40;99.90;;;;;;5054050;28;20039;-68
2023/02/15 05:13:20;;;;;;;54.72;27.90;;;-0.40;99.90;;;;;;5054372;28;20028;-68
2023/02/15 05:15:48;;;;;;;55.15;27.30;;;-0.50;99.90;;;;;;5054227;28;20036;-68
2023/02/15 05:18:14;;;;;;;52.63;27.63;;;-0.50;99.90;;;;;;5054231;28;20091;-69
2023/02/15 05:20:40;;;;;;;54.10;26.55;;;-0.50;99.90;;;;;;5053884;28;20049;-68
2023/02/15 05:23:05;;;;;;;58.05;27.52;;;-0.60;99.90;;;;;;5053982;28;20025;-68
2023/02/15 05:28:19;;;;;;;49.83;26.80;;;-0.60;99.90;;;;;;5053692;28;20017;-68
2023/02/15 05:30:47;;;;;;;51.90;26.58;;;-0.60;99.90;;;;;;5053589;28;20040;-68
2023/02/15 05:33:13;;;;;;;53.08;26.40;;;-0.70;99.90;;;;;;5053919;28;20027;-68
2023/02/15 05:35:38;;;;;;;53.05;26.45;;;-0.70;99.90;;;;;;5053994;28;20033;-68
2023/02/15 05:38:04;;;;;;;60.75;29.65;;;-0.70;99.90;;;;;;5053917;28;20029;-68
2023/02/15 05:40:29;;;;;;;57.45;28.90;;;-0.70;99.90;;;;;;5053734;28;20036;-68
2023/02/15 05:42:56;;;;;;;55.55;28.38;;;-0.70;99.90;;;;;;5053727;28;20013;-68
2023/02/15 05:45:22;;;;;;;49.00;25.95;;;-0.70;99.90;;;;;;5053726;28;20494;-68
2023/02/15 05:47:47;;;;;;;50.38;26.80;;;-0.80;99.90;;;;;;5053581;28;20029;-67
2023/02/15 05:50:13;;;;;;;52.28;26.73;;;-0.80;99.90;;;;;;5053330;28;20032;-68
2023/02/15 05:52:38;;;;;;;52.13;26.30;;;-0.80;99.90;;;;;;5053419;28;20025;-67
2023/02/15 05:55:05;;;;;;;50.53;26.10;;;-0.80;99.90;;;;;;5053414;28;20021;-68
2023/02/15 05:57:30;;;;;;;51.70;27.95;;;-0.80;99.90;;;;;;5053519;28;20047;-68
2023/02/15 05:59:56;;;;;;;57.75;28.25;;;-0.80;99.90;;;;;;5053417;28;20025;-68
2023/02/15 06:02:22;;;;;;;49.60;26.50;;;-0.90;99.90;;;;;;5053187;28;20119;-68
2023/02/15 06:04:47;;;;;;;50.35;25.90;;;-0.90;99.90;;;;;;5053412;28;20544;-68
2023/02/15 06:07:13;;;;;;;53.88;26.58;;;-1.00;99.90;;;;;;5053232;28;20028;-67
2023/02/15 06:09:39;;;;;;;49.22;26.52;;;-0.90;99.90;;;;;;5053258;28;20025;-68
2023/02/15 06:12:05;;;;;;;51.47;26.48;;;-0.90;99.90;;;;;;5053330;28;20036;-68
2023/02/15 06:14:30;;;;;;;52.17;27.83;;;-0.90;99.90;;;;;;5052978;28;20031;-68
2023/02/15 06:16:56;;;;;;;55.30;27.90;;;-1.00;99.90;;;;;;5053104;28;20021;-68
2023/02/15 06:19:22;;;;;;;50.10;26.48;;;-1.00;99.90;;;;;;5053200;28;20025;-68
2023/02/15 06:21:48;;;;;;;53.15;26.50;;;-1.00;99.90;;;;;;5052803;28;20044;-68
2023/02/15 06:24:14;;;;;;;51.70;26.00;;;-1.00;99.90;;;;;;5053021;28;20033;-68
2023/02/15 06:26:39;;;;;;;50.08;26.58;;;-1.00;99.90;;;;;;5053006;28;20028;-68
2023/02/15 06:29:05;;;;;;;54.75;28.00;;;-1.00;99.90;;;;;;5053195;28;20086;-68
2023/02/15 06:31:30;;;;;;;55.72;27.83;;;-1.00;99.90;;;;;;5053188;28;20104;-68
2023/02/15 06:34:00;;;;;;;51.20;26.90;;;-1.00;99.90;;;;;;5052965;28;20032;-68
2023/02/15 06:36:28;;;;;;;50.00;26.33;;;-1.00;99.90;;;;;;5053073;28;20029;-68
2023/02/15 06:38:54;;;;;;;52.42;27.15;;;-1.00;99.90;;;;;;5053139;28;20101;-68
2023/02/15 06:41:20;;;;;;;57.17;28.33;;;-1.00;99.90;;;;;;5052812;28;20562;-68
2023/02/15 06:43:45;;;;;;;52.75;29.88;;;-1.00;99.90;;;;;;5053017;28;20116;-68
2023/02/15 06:46:11;;;;;;;54.30;27.52;;;-1.00;99.90;;;;;;5052836;28;20071;-68
2023/02/15 06:48:36;;;;;;;57.97;27.73;;;-1.00;99.90;;;;;;5052861;28;20017;-68
2023/02/15 06:51:02;;;;;;;50.75;26.67;;;-1.00;99.90;;;;;;5052661;28;20029;-68
2023/02/15 06:53:27;;;;;;;56.25;29.02;;;-1.00;99.90;;;;;;5052743;28;20029;-68
2023/02/15 06:56:00;;;;;;;55.80;28.85;;;-0.90;99.90;;;;;;5052706;28;20449;-68
2023/02/15 06:58:26;;;;;;;54.03;28.20;;;-0.90;99.90;;;;;;5052810;28;20025;-68
2023/02/15 07:00:52;;;;;;;57.45;28.20;;;-0.80;99.90;;;;;;5052606;28;20033;-68
2023/02/15 07:03:17;;;;;;;57.97;28.13;;;-0.70;99.90;;;;;;5053738;28;20055;-68
2023/02/15 07:05:43;;;;;;;59.58;30.13;;;-0.70;99.90;;;;;;5056569;28;20029;-68
2023/02/15 07:08:09;;;;;;;72.80;35.47;;;-0.50;99.90;;;;;;5056498;28;20033;-68
2023/02/15 07:10:34;;;;;;;77.18;35.38;;;-0.20;99.90;;;;;;5056649;28;20102;-68
2023/02/15 07:13:00;;;;;;;72.55;37.10;;;0.50;99.90;;;;;;5056256;28;20063;-68
2023/02/15 07:15:25;;;;;;;80.35;38.40;;;1.40;99.90;;;;;;5056279;28;20046;-68
2023/02/15 07:17:51;;;;;;;72.00;38.55;;;2.20;99.90;;;;;;5056457;28;20033;-68
2023/02/15 07:20:21;;;;;;;68.53;36.80;;;2.80;99.90;;;;;;5055944;28;20059;-66
2023/02/15 07:22:47;;;;;;;63.80;35.90;;;3.40;99.90;;;;;;5056160;28;20021;-68
2023/02/15 07:25:13;;;;;;;59.25;32.75;;;3.90;99.90;;;;;;5055008;28;20104;-67
2023/02/15 07:27:39;;;;;;;49.80;29.02;;;4.40;99.90;;;;;;5056390;28;20064;-68
2023/02/15 07:30:08;;;;;;;49.25;27.40;;;4.40;99.90;;;;;;5056331;28;20025;-68
2023/02/15 07:32:33;;;;;;;47.33;26.00;;;4.50;99.90;;;;;;5054880;28;20502;-68
2023/02/15 07:34:59;;;;;;;44.58;23.77;;;4.50;99.90;;;;;;5056034;28;20028;-68
2023/02/15 07:37:26;;;;;;;37.40;23.55;;;4.80;99.90;;;;;;5056025;28;20078;-66
2023/02/15 07:39:51;;;;;;;39.58;22.92;;;5.10;99.90;;;;;;5055915;28;20235;-66
2023/02/15 07:42:19;;;;;;;37.10;22.90;;;5.40;99.90;;;;;;5055677;28;20514;-66
2023/02/15 07:44:45;;;;;;;33.13;21.33;;;5.60;99.90;;;;;;5055782;28;20109;-66
2023/02/15 07:47:11;;;;;;;33.80;20.70;;;;;;;;;;5055992;28;20538;-66
2023/02/15 07:49:38;;;;;;;41.75;20.90;;;6.30;99.90;;;;;;5055765;28;20154;-67
2023/02/15 07:52:03;;;;;;;31.23;19.70;;;7.50;99.90;;;;;;5055664;28;20037;-66
2023/02/15 07:54:29;;;;;;;29.27;18.25;;;8.00;99.90;;;;;;5055782;28;20573;-67
2023/02/15 07:56:54;;;;;;;26.83;17.92;;;8.70;99.90;;;;;;5055549;28;20029;-66
2023/02/15 07:59:20;;;;;;;32.83;18.00;;;9.50;99.90;;;;;;5055535;28;20033;-67
2023/02/15 08:01:45;;;;;;;26.05;17.60;;;10.20;99.90;;;;;;5055421;28;20416;-67
2023/02/15 08:04:11;;;;;;;31.05;19.42;;;10.60;99.90;;;;;;5055443;28;20029;-67
2023/02/15 08:06:37;;;;;;;26.30;17.85;;;10.60;99.90;;;;;;5055478;28;20029;-67
2023/02/15 08:09:06;;;;;;;26.48;17.25;;;10.60;99.90;;;;;;5055418;28;20399;-67
2023/02/15 08:11:39;;;;;;;26.27;17.80;;;10.50;99.90;;;;;;5055433;28;20039;-68
2023/02/15 08:14:22;;;;;;;27.00;17.88;;;10.80;99.90;;;;;;5053968;28;20433;-67
2023/02/15 08:19:27;;;;;;;26.42;18.80;;;11.50;99.90;;;;;;5111086;27;20306;-68
2023/02/15 08:21:57;;;;;;;23.80;18.30;;;10.50;99.90;;;;;;5111272;28;20123;-67
2023/02/15 08:24:24;;;;;;;27.20;18.13;;;9.70;99.90;;;;;;5110804;28;20500;-68
2023/02/15 08:26:51;;;;;;;25.08;16.88;;;9.40;99.90;;;;;;5111096;28;20065;-67
2023/02/15 08:29:21;;;;;;;22.60;16.70;;;10.00;99.90;;;;;;5109706;28;20035;-68
2023/02/15 08:31:46;;;;;;;24.00;17.75;;;10.60;99.90;;;;;;5109544;28;20110;-68
2023/02/15 08:34:16;;;;;;;23.40;17.08;;;10.60;99.90;;;;;;5110742;28;20066;-68
2023/02/15 08:36:44;;;;;;;26.15;19.02;;;11.20;99.90;;;;;;5109413;28;20031;-67
2023/02/15 08:39:11;;;;;;;30.35;18.40;;;11.10;99.90;;;;;;5110821;28;20028;-68
2023/02/15 08:41:38;;;;;;;23.92;18.30;;;10.90;99.90;;;;;;5109708;28;20497;-68
2023/02/15 08:44:07;;;;;;;24.25;17.80;;;10.60;99.90;;;;;;5109675;28;20485;-68
2023/02/15 08:46:35;;;;;;;24.63;16.90;;;10.40;99.90;;;;;;5109508;28;20103;-67
2023/02/15 08:49:01;;;;;;;30.42;19.95;;;11.10;99.90;;;;;;5110323;28;20039;-67
2023/02/15 08:51:30;;;;;;;30.85;18.67;;;11.70;99.90;;;;;;5109198;28;20392;-67
2023/02/15 08:53:58;;;;;;;26.30;18.98;;;11.70;99.90;;;;;;5110185;28;20039;-67
2023/02/15 08:56:27;;;;;;;28.27;19.08;;;11.70;99.90;;;;;;5109159;28;20496;-68
2023/02/15 08:58:54;;;;;;;26.30;18.45;;;11.70;99.90;;;;;;5110212;28;20020;-68
2023/02/15 09:01:22;;;;;;;27.52;17.92;;;11.80;99.90;;;;;;5110243;28;20034;-68
2023/02/15 09:03:50;;;;;;;26.17;18.05;;;12.00;99.90;;;;;;5110337;28;20028;-68
2023/02/15 09:06:16;;;;;;;26.13;18.30;;;12.00;99.90;;;;;;5109982;28;20047;-68
2023/02/15 09:08:42;;;;;;;27.52;18.17;;;13.00;99.90;;;;;;5109910;28;20473;-67
2023/02/15 09:11:11;;;;;;;27.70;18.35;;;12.30;99.90;;;;;;5110102;28;20023;-68
2023/02/15 09:13:37;;;;;;;26.20;18.65;;;12.90;99.90;;;;;;5110006;28;20504;-67
2023/02/15 09:16:04;;;;;;;29.13;18.13;;;;;;;;;;5109944;28;20059;-68
2023/02/15 09:18:35;;;;;;;24.13;17.85;;;13.30;99.90;;;;;;5109720;28;20044;-67
2023/02/15 09:21:13;;;;;;;24.33;17.65;;;12.60;99.90;;;;;;5110019;28;20530;-67
2023/02/15 09:23:42;;;;;;;28.15;19.17;;;12.90;99.90;;;;;;5108682;28;20024;-67
2023/02/15 09:26:11;;;;;;;26.95;17.80;;;13.40;99.90;;;;;;5108842;28;20038;-68
2023/02/15 09:28:37;;;;;;;24.40;17.70;;;13.50;99.90;;;;;;5108819;28;20045;-68
2023/02/15 09:31:10;;;;;;;23.50;17.88;;;13.50;99.90;;;;;;5095861;28;20115;-68
2023/02/15 09:33:37;;;;;;;26.85;19.00;;;13.20;99.90;;;;;;5094779;28;20193;-68
2023/02/15 09:36:04;;;;;;;25.75;19.42;;;14.00;99.90;;;;;;5095197;28;20490;-68
2023/02/15 09:38:29;;;;;;;28.95;18.63;;;13.40;99.90;;;;;;5095863;28;20032;-67
2023/02/15 09:41:13;;;;;;;27.33;18.77;;;13.20;99.90;;;;;;5095898;28;20074;-68
2023/02/15 09:44:03;;;;;;;25.90;18.60;;;12.60;99.90;;;;;;5095965;28;20103;-67
2023/02/15 09:46:47;;;;;;;25.15;18.13;;;12.70;99.90;;;;;;5094545;28;20020;-68
2023/02/15 09:49:26;;;;;;;26.15;18.10;;;13.50;99.90;;;;;;5095949;28;20553;-67
2023/02/15 09:52:22;;;;;;;27.80;18.15;;;13.80;99.90;;;;;;5095692;28;20052;-68
2023/02/15 09:55:18;;;;;;;29.08;18.55;;;13.80;99.90;;;;;;5095545;28;20028;-68
2023/02/15 09:58:13;;;;;;;26.58;18.85;;;13.90;99.90;;;;;;5095526;28;20085;-67
2023/02/15 10:00:58;;;;;;;32.72;19.17;;;14.10;99.90;;;;;;5095634;28;20024;-67
2023/02/15 10:03:39;;;;;;;28.67;18.55;;;14.10;99.90;;;;;;5095442;28;20444;-67
2023/02/15 10:06:45;;;;;;;30.58;18.65;;;14.80;99.90;;;;;;5095469;28;20020;-67
2023/02/15 10:09:36;;;;;;;30.70;19.25;;;15.00;99.90;;;;;;5095350;28;20043;-67
2023/02/15 10:12:20;;;;;;;29.75;19.45;;;15.80;99.90;;;;;;5095322;28;20367;-67
2023/02/15 10:15:11;;;;;;;28.85;19.02;;;15.70;98.20;;;;;;5095303;28;20035;-67
2023/02/15 10:20:46;;;;;;;28.55;19.08;;;15.50;99.30;;;;;;5110926;27;20376;-67
2023/02/15 10:26:35;;;;;;;30.25;19.83;;;15.50;97.80;;;;;;5111039;27;20351;-67
2023/02/15 10:29:08;;;;;;;29.92;18.60;;;15.10;99.90;;;;;;5110409;28;20489;-67
2023/02/15 10:32:00;;;;;;;27.95;17.45;;;15.50;98.70;;;;;;5109777;28;20055;-67
2023/02/15 10:34:39;;;;;;;32.97;21.35;;;14.80;99.80;;;;;;5110758;28;20469;-67
2023/02/15 10:37:37;;;;;;;28.05;18.73;;;14.60;99.90;;;;;;5110915;28;20434;-67
2023/02/15 10:40:11;;;;;;;27.95;18.75;;;15.30;99.90;;;;;;5110739;28;20498;-67
2023/02/15 10:45:44;;;;;;;30.77;19.63;;;15.10;99.30;;;;;;5111132;27;20433;-67
2023/02/15 10:48:43;;;;;;;28.33;18.13;;;15.60;98.80;;;;;;5111162;28;20024;-67
2023/02/15 10:51:19;;;;;;;25.33;18.10;;;16.60;96.50;;;;;;5111001;28;20043;-68
2023/02/15 10:56:34;;;;;;;28.23;18.77;;;16.30;97.40;;;;;;5111033;27;20376;-67
2023/02/15 10:59:22;;;;;;;27.73;18.88;;;16.10;97.00;;;;;;5111058;28;20118;-67
2023/02/15 11:04:53;;;;;;;31.30;19.02;;;15.80;97.70;;;;;;5090712;27;20410;-67
2023/02/15 11:07:25;;;;;;;30.85;19.48;;;15.90;97.10;;;;;;5090812;28;20064;-68
2023/02/15 11:09:59;;;;;;;28.52;19.45;;;16.00;96.90;;;;;;5090385;28;20543;-68
2023/02/15 11:12:28;;;;;;;29.80;19.98;;;15.60;97.30;;;;;;5089373;28;20039;-67
2023/02/15 11:15:01;;;;;;;31.90;20.35;;;15.30;99.10;;;;;;5090086;28;20417;-67
2023/02/15 11:17:36;;;;;;;28.65;18.88;;;15.10;98.70;;;;;;5090425;28;20090;-67
2023/02/15 11:22:40;;;;;;;28.25;18.90;;;17.80;94.20;;;;;;5111058;27;20376;-67
2023/02/15 11:25:18;;;;;;;29.13;19.48;;;17.50;94.00;;;;;;5110753;28;20077;-67
2023/02/15 11:27:46;;;;;;;29.70;19.23;;;17.10;95.10;;;;;;5109719;28;20027;-67
2023/02/15 11:30:20;;;;;;;30.17;19.17;;;17.30;94.50;;;;;;5110910;28;20131;-67
2023/02/15 11:32:49;;;;;;;32.72;19.55;;;16.80;94.80;;;;;;5109500;28;20386;-67
2023/02/15 11:35:25;;;;;;;31.42;19.70;;;16.00;95.60;;;;;;5109626;28;20020;-67
2023/02/15 11:40:45;;;;;;;31.85;20.45;;;15.20;98.10;;;;;;5111209;27;20397;-68
2023/02/15 11:43:35;;;;;;;29.45;19.38;;;15.10;99.40;;;;;;5111225;28;20046;-68
2023/02/15 11:46:01;;;;;;;29.48;18.40;;;15.50;98.10;;;;;;5110750;28;20063;-66
2023/02/15 11:48:30;;;;;;;36.58;20.75;;;15.50;97.90;;;;;;5110674;28;20024;-67
2023/02/15 11:50:56;;;;;;;32.35;20.63;;;15.20;98.60;;;;;;5110728;28;20046;-66
2023/02/15 11:53:27;;;;;;;35.17;20.33;;;15.00;98.80;;;;;;5110745;28;20439;-66
2023/02/15 11:55:54;;;;;;;32.55;21.02;;;14.90;99.70;;;;;;5110735;28;20034;-67
2023/02/15 11:58:43;;;;;;;38.53;20.48;;;15.10;99.90;;;;;;5110363;28;20464;-66
2023/02/15 12:01:31;;;;;;;32.42;20.25;;;15.00;99.30;;;;;;5110461;28;20058;-66
2023/02/15 12:04:27;;;;;;;36.22;20.65;;;15.20;98.80;;;;;;5110469;28;20059;-66
2023/02/15 12:07:04;;;;;;;34.20;19.70;;;15.00;99.40;;;;;;5110425;28;20024;-67
2023/02/15 12:10:11;;;;;;;33.65;19.75;;;14.90;98.90;;;;;;5110373;28;20028;-67
2023/02/15 12:12:37;;;;;;;36.38;20.77;;;14.80;99.90;;;;;;5110258;28;20081;-67
2023/02/15 12:15:06;;;;;;;38.53;20.48;;;14.50;99.90;;;;;;5110510;28;20481;-67
2023/02/15 12:17:35;;;;;;;37.83;20.30;;;14.50;99.90;;;;;;5109234;28;20502;-66
2023/02/15 12:20:07;;;;;;;35.03;19.77;;;14.70;99.90;;;;;;5110276;28;20023;-66
2023/02/15 12:22:36;;;;;;;35.00;19.33;;;14.90;99.90;;;;;;5110406;27;20028;-67
2023/02/15 12:25:19;;;;;;;34.03;18.33;;;15.30;99.80;;;;;;5110207;28;20028;-67
2023/02/15 12:27:46;;;;;;;34.05;20.40;;;15.00;99.90;;;;;;5110154;28;20149;-67
2023/02/15 12:30:25;;;;;;;34.10;20.13;;;15.20;99.90;;;;;;5110174;28;20027;-66
2023/02/15 12:32:54;;;;;;;42.67;21.20;;;15.00;99.80;;;;;;5108883;28;20024;-67
2023/02/15 12:35:31;;;;;;;36.63;20.83;;;15.00;99.90;;;;;;5110246;28;20031;-66
2023/02/15 12:38:03;;;;;;;34.03;20.98;;;15.10;99.90;;;;;;5108970;28;20055;-67
2023/02/15 12:40:31;;;;;;;33.50;20.17;;;15.30;99.90;;;;;;5109695;28;20590;-67
2023/02/15 12:42:57;;;;;;;37.20;19.55;;;15.20;99.90;;;;;;5108886;28;20081;-67
2023/02/15 12:45:32;;;;;;;38.22;20.63;;;15.30;99.80;;;;;;5109850;28;20020;-67
2023/02/15 12:50:51;;;;;;;35.88;19.10;;;15.30;99.90;;;;;;5111014;27;20383;-67
2023/02/15 12:53:29;;;;;;;34.88;19.88;;;15.20;99.90;;;;;;5111059;28;20092;-68
2023/02/15 12:56:02;;;;;;;34.22;18.67;;;15.00;99.80;;;;;;5111169;28;20028;-67
2023/02/15 12:58:30;;;;;;;34.50;19.75;;;15.20;99.90;;;;;;5109725;28;20024;-67
2023/02/15 13:01:17;;;;;;;32.97;19.38;;;15.30;99.60;;;;;;5109810;28;20382;-67
2023/02/15 13:04:04;;;;;;;37.80;19.85;;;15.10;99.40;;;;;;5109510;28;20094;-67
2023/02/15 13:06:34;;;;;;;34.75;20.15;;;15.10;99.80;;;;;;5109169;28;20024;-68
2023/02/15 13:09:26;;;;;;;35.45;20.67;;;15.10;99.90;;;;;;5110866;28;20393;-67
2023/02/15 13:11:52;;;;;;;36.38;21.20;;;15.30;99.90;;;;;;5110479;28;20024;-67
2023/02/15 13:14:21;;;;;;;36.67;19.92;;;15.40;99.90;;;;;;5110555;28;20024;-68
2023/02/15 13:16:50;;;;;;;31.33;17.85;;;15.20;99.90;;;;;;5110490;28;20097;-68
2023/02/15 13:19:19;;;;;;;36.92;19.15;;;15.20;99.90;;;;;;5109543;28;20504;-68
2023/02/15 13:21:49;;;;;;;35.95;18.08;;;15.20;99.30;;;;;;5110592;28;20024;-67
2023/02/15 13:24:25;;;;;;;39.28;18.80;;;15.20;98.90;;;;;;5110446;28;20024;-67
2023/02/15 13:26:54;;;;;;;30.17;17.02;;;15.40;98.90;;;;;;5090020;28;20164;-67
2023/02/15 13:29:25;;;;;;;33.05;17.88;;;15.50;99.40;;;;;;5089705;28;20098;-67
2023/02/15 13:31:53;;;;;;;30.98;18.20;;;15.40;99.00;;;;;;5090030;28;20055;-67
2023/02/15 13:34:25;;;;;;;30.90;18.15;;;15.30;99.40;;;;;;5090087;28;20017;-67
2023/02/15 13:40:00;;;;;;;33.05;17.80;;;15.60;98.60;;;;;;5111090;27;20433;-67
2023/02/15 13:42:40;;;;;;;32.33;18.45;;;15.40;99.00;;;;;;5110981;28;20061;-67